Time;durP1;ratioP1;P1;durP2;ratioP2;P2;SDS_P1;SDS_P2;PMS_P1;PMS_P2;Temp;Humidity;BMP_temperature;BMP_pressure;BME280_temperature;BME280_humidity;BME280_pressure;Samples;Min_cycle;Max_cycle;Signal;HPM_P1;HPM_P2
2023/05/15 00:01:21;;;;;;;250.60;43.42;;;10.80;99.90;;;;;;5017062;28;20115;-85
2023/05/15 00:03:47;;;;;;;208.65;48.95;;;10.80;99.90;;;;;;5032648;28;20072;-85
2023/05/15 00:06:13;;;;;;;457.52;64.47;;;10.80;99.90;;;;;;5024153;28;20424;-85
2023/05/15 00:08:41;;;;;;;327.83;47.08;;;10.80;99.90;;;;;;5024822;28;20040;-85
2023/05/15 00:11:07;;;;;;;311.05;49.83;;;10.70;99.90;;;;;;5024497;28;20045;-85
2023/05/15 00:13:32;;;;;;;438.63;59.50;;;10.80;99.90;;;;;;5024043;28;20105;-85
2023/05/15 00:15:58;;;;;;;413.08;56.10;;;10.80;99.90;;;;;;5019425;28;20041;-85
2023/05/15 00:18:26;;;;;;;357.05;50.90;;;10.80;99.90;;;;;;5024377;28;20128;-86
2023/05/15 00:20:52;;;;;;;342.20;51.35;;;10.70;99.90;;;;;;5016578;28;20530;-85
2023/05/15 00:23:17;;;;;;;679.78;75.80;;;10.70;99.90;;;;;;5023254;28;20029;-84
2023/05/15 00:25:43;;;;;;;405.08;57.45;;;10.60;99.90;;;;;;5028581;28;20412;-85
2023/05/15 00:28:09;;;;;;;315.90;50.83;;;10.60;99.90;;;;;;5033867;28;20048;-84
2023/05/15 00:30:34;;;;;;;192.15;45.53;;;10.60;99.90;;;;;;5033961;28;20045;-86
2023/05/15 00:33:00;;;;;;;207.80;45.78;;;10.60;99.90;;;;;;5015315;28;20388;-85
2023/05/15 00:35:26;;;;;;;377.10;61.40;;;10.70;99.90;;;;;;5033108;28;20040;-85
2023/05/15 00:37:51;;;;;;;296.00;50.25;;;10.70;99.90;;;;;;5022917;28;20156;-85
2023/05/15 00:40:24;;;;;;;349.95;53.67;;;10.70;99.90;;;;;;5020283;28;20041;-84
2023/05/15 00:42:51;;;;;;;458.38;63.85;;;10.70;99.90;;;;;;5014925;28;20604;-86
2023/05/15 00:45:18;;;;;;;259.15;55.03;;;10.80;99.90;;;;;;5018694;28;20033;-86
2023/05/15 00:47:45;;;;;;;235.05;47.47;;;10.80;99.90;;;;;;5020484;28;20038;-85
2023/05/15 00:50:11;;;;;;;271.05;53.10;;;10.80;99.90;;;;;;5031467;28;20033;-86
2023/05/15 00:52:37;;;;;;;342.98;52.92;;;10.60;99.90;;;;;;5036245;28;20645;-85
2023/05/15 00:55:04;;;;;;;226.88;46.72;;;10.50;99.90;;;;;;5030735;28;20453;-86
2023/05/15 00:57:30;;;;;;;167.13;42.13;;;10.50;99.90;;;;;;5016452;28;20334;-86
2023/05/15 00:59:58;;;;;;;172.38;43.45;;;10.50;99.90;;;;;;5013266;28;20075;-86
2023/05/15 01:02:26;;;;;;;324.42;55.53;;;10.50;99.90;;;;;;5030696;28;20073;-86
2023/05/15 01:04:52;;;;;;;241.18;50.15;;;10.50;99.90;;;;;;5018385;28;20373;-86
2023/05/15 01:07:18;;;;;;;180.48;49.15;;;10.50;99.90;;;;;;5031601;28;20134;-85
2023/05/15 01:09:45;;;;;;;178.80;52.58;;;10.50;99.90;;;;;;5014617;28;20079;-87
2023/05/15 01:12:13;;;;;;;110.70;45.17;;;10.50;99.90;;;;;;5020290;28;20052;-86
2023/05/15 01:14:39;;;;;;;139.48;47.25;;;10.60;99.90;;;;;;5019134;28;20124;-85
2023/05/15 01:17:08;;;;;;;199.23;52.63;;;10.60;99.90;;;;;;5016138;28;20081;-86
2023/05/15 01:19:34;;;;;;;122.68;47.03;;;10.70;99.90;;;;;;5033531;28;20128;-85
2023/05/15 01:22:12;;;;;;;159.55;51.20;;;10.70;99.90;;;;;;5032960;28;20466;-85
2023/05/15 01:25:16;;;;;;;136.65;49.00;;;10.60;99.90;;;;;;5032506;28;20407;-83
2023/05/15 01:27:48;;;;;;;195.18;51.60;;;10.50;99.90;;;;;;5017200;28;20123;-85
2023/05/15 01:30:27;;;;;;;164.70;46.60;;;10.50;99.90;;;;;;5029939;28;20080;-85
2023/05/15 01:33:20;;;;;;;315.92;52.72;;;10.50;99.90;;;;;;5020821;28;20504;-85
2023/05/15 01:36:07;;;;;;;145.77;43.10;;;10.40;99.90;;;;;;5018980;28;20412;-85
2023/05/15 01:38:37;;;;;;;232.65;52.65;;;10.50;99.90;;;;;;5016257;28;20083;-86
2023/05/15 01:41:06;;;;;;;198.98;50.92;;;10.40;99.90;;;;;;5016804;28;20042;-86
2023/05/15 01:43:35;;;;;;;125.85;46.30;;;10.50;99.90;;;;;;5013900;28;20040;-85
2023/05/15 01:46:02;;;;;;;131.68;45.38;;;10.50;99.90;;;;;;5015891;28;20320;-86
2023/05/15 01:48:30;;;;;;;282.08;50.97;;;10.50;99.90;;;;;;5035778;28;20045;-85
2023/05/15 01:51:01;;;;;;;280.98;50.25;;;10.50;99.90;;;;;;5014152;28;20188;-85
2023/05/15 01:53:34;;;;;;;228.15;48.92;;;10.50;99.90;;;;;;5014251;28;20047;-86
2023/05/15 01:56:02;;;;;;;487.77;61.85;;;10.50;99.90;;;;;;5023866;28;20431;-86
2023/05/15 01:58:31;;;;;;;232.13;52.25;;;10.50;99.90;;;;;;5021266;28;20124;-85
2023/05/15 02:00:58;;;;;;;379.65;59.15;;;10.50;99.90;;;;;;5016816;28;20032;-85
2023/05/15 02:03:24;;;;;;;221.07;46.60;;;10.50;99.90;;;;;;5016527;28;20037;-86
2023/05/15 02:05:52;;;;;;;375.50;64.85;;;10.50;99.90;;;;;;5034082;28;20050;-85
2023/05/15 02:08:19;;;;;;;258.70;52.08;;;10.50;99.90;;;;;;5030795;28;20076;-87
2023/05/15 02:10:46;;;;;;;170.70;44.58;;;10.50;99.90;;;;;;5028502;28;20041;-85
2023/05/15 02:13:13;;;;;;;230.50;49.38;;;10.50;99.90;;;;;;5021603;28;20064;-86
2023/05/15 02:15:39;;;;;;;225.93;44.15;;;10.50;99.90;;;;;;5032371;28;20536;-85
2023/05/15 02:18:05;;;;;;;551.55;59.92;;;10.50;99.90;;;;;;5017367;28;20117;-86
2023/05/15 02:20:31;;;;;;;464.80;55.65;;;10.40;99.90;;;;;;5020244;28;20112;-85
2023/05/15 02:22:56;;;;;;;482.80;55.75;;;10.40;99.90;;;;;;5016979;28;20134;-86
2023/05/15 02:25:33;;;;;;;645.33;61.03;;;10.40;99.90;;;;;;5016423;28;20488;-85
2023/05/15 02:28:00;;;;;;;824.25;79.30;;;10.30;99.90;;;;;;5017839;28;20040;-86
2023/05/15 02:30:34;;;;;;;534.20;54.97;;;10.30;99.90;;;;;;5033297;28;20047;-85
2023/05/15 02:33:15;;;;;;;602.65;62.85;;;10.30;99.90;;;;;;5021326;28;20097;-84
2023/05/15 02:35:58;;;;;;;541.63;62.60;;;10.20;99.90;;;;;;5019076;28;20520;-85
2023/05/15 02:38:32;;;;;;;215.75;42.47;;;10.20;99.90;;;;;;5033982;28;20049;-86
2023/05/15 02:41:00;;;;;;;360.35;46.15;;;10.30;99.90;;;;;;5029069;28;20041;-86
2023/05/15 02:43:26;;;;;;;209.30;45.20;;;10.20;99.90;;;;;;5029888;28;20043;-85
2023/05/15 02:45:54;;;;;;;279.05;47.85;;;10.10;99.90;;;;;;5018012;28;20132;-86
2023/05/15 02:48:20;;;;;;;205.93;48.80;;;10.10;99.90;;;;;;5018723;28;20334;-86
2023/05/15 02:50:46;;;;;;;394.90;57.45;;;10.10;99.90;;;;;;5017314;28;20052;-86
2023/05/15 02:53:13;;;;;;;193.93;47.45;;;9.90;99.90;;;;;;5016583;28;20146;-84
2023/05/15 02:55:39;;;;;;;169.45;45.97;;;10.00;99.90;;;;;;5012637;28;20052;-85
2023/05/15 02:58:05;;;;;;;84.55;39.63;;;10.00;99.90;;;;;;5020276;28;20503;-85
2023/05/15 03:00:30;;;;;;;249.88;50.65;;;10.10;99.90;;;;;;5032944;28;20428;-85
2023/05/15 03:02:56;;;;;;;198.23;46.33;;;10.10;99.90;;;;;;5039116;28;20037;-86
2023/05/15 03:05:22;;;;;;;81.07;40.13;;;10.00;99.90;;;;;;5034550;28;20040;-85
2023/05/15 03:07:47;;;;;;;227.40;50.20;;;10.10;99.90;;;;;;5036077;28;20143;-85
2023/05/15 03:10:13;;;;;;;463.42;55.35;;;10.00;99.90;;;;;;5021753;28;20044;-85
2023/05/15 03:12:39;;;;;;;137.20;39.10;;;10.00;99.90;;;;;;5019404;28;20037;-85
2023/05/15 03:15:06;;;;;;;248.75;38.67;;;9.90;99.90;;;;;;5022473;28;20048;-85
2023/05/15 03:17:31;;;;;;;337.38;41.40;;;10.00;99.90;;;;;;5022574;28;20037;-86
2023/05/15 03:19:57;;;;;;;466.48;44.30;;;10.00;99.90;;;;;;5035009;28;20029;-85
2023/05/15 03:22:23;;;;;;;340.05;39.03;;;9.90;99.90;;;;;;5023412;28;20040;-86
2023/05/15 03:24:48;;;;;;;300.88;37.78;;;9.80;99.90;;;;;;5014900;28;20450;-85
2023/05/15 03:27:14;;;;;;;288.63;40.08;;;9.70;99.90;;;;;;5020162;28;20033;-86
2023/05/15 03:29:41;;;;;;;500.48;55.13;;;9.80;99.90;;;;;;5019762;28;20404;-85
2023/05/15 03:32:06;;;;;;;416.13;52.50;;;9.70;99.90;;;;;;5020497;28;20041;-85
2023/05/15 03:34:32;;;;;;;159.70;38.70;;;9.70;99.90;;;;;;5022295;28;20052;-84
2023/05/15 03:36:58;;;;;;;251.98;47.22;;;9.70;99.90;;;;;;5022809;28;20049;-84
2023/05/15 03:39:23;;;;;;;235.02;50.00;;;9.60;99.90;;;;;;5022326;28;20055;-84
2023/05/15 03:41:49;;;;;;;128.70;40.47;;;9.70;99.90;;;;;;5021892;28;20322;-86
2023/05/15 03:44:15;;;;;;;163.10;41.83;;;9.80;99.90;;;;;;5022703;28;20371;-85
2023/05/15 03:46:40;;;;;;;119.00;35.55;;;9.80;99.90;;;;;;5022142;28;20045;-85
2023/05/15 03:49:06;;;;;;;110.03;35.92;;;9.80;99.90;;;;;;5023771;28;20050;-85
2023/05/15 03:51:32;;;;;;;81.93;34.33;;;9.70;99.90;;;;;;5034102;28;20041;-85
2023/05/15 03:53:57;;;;;;;81.93;34.03;;;9.60;99.90;;;;;;5022340;28;20049;-86
2023/05/15 03:56:23;;;;;;;83.55;36.35;;;9.50;99.90;;;;;;5033284;28;20052;-85
2023/05/15 03:58:49;;;;;;;112.00;37.88;;;9.40;99.90;;;;;;5032786;28;20053;-84
2023/05/15 04:01:14;;;;;;;75.80;34.67;;;9.40;99.90;;;;;;5023105;28;20041;-86
2023/05/15 04:03:40;;;;;;;76.20;32.97;;;9.40;99.90;;;;;;5020654;28;20040;-84
2023/05/15 04:06:06;;;;;;;74.53;33.22;;;9.30;99.90;;;;;;5023373;28;20033;-84
2023/05/15 04:08:35;;;;;;;72.88;32.65;;;9.30;99.90;;;;;;5031655;28;20072;-86
2023/05/15 04:11:00;;;;;;;64.50;30.35;;;9.30;99.90;;;;;;5031418;28;20044;-86
2023/05/15 04:13:26;;;;;;;57.28;29.02;;;9.30;99.90;;;;;;5033124;28;20048;-85
2023/05/15 04:15:52;;;;;;;67.38;32.08;;;9.30;99.90;;;;;;5023094;28;20464;-84
2023/05/15 04:18:18;;;;;;;69.88;32.92;;;9.30;99.90;;;;;;5024565;28;20048;-85
2023/05/15 04:20:44;;;;;;;55.00;29.50;;;9.30;99.90;;;;;;5020805;28;20369;-86
2023/05/15 04:23:10;;;;;;;51.00;26.95;;;9.30;99.90;;;;;;5022569;28;20040;-85
2023/05/15 04:25:41;;;;;;;58.15;28.33;;;9.30;99.90;;;;;;5030329;28;20562;-86
2023/05/15 04:28:07;;;;;;;49.97;28.30;;;9.30;99.90;;;;;;5017064;28;20068;-85
2023/05/15 04:30:32;;;;;;;48.80;25.90;;;9.40;99.90;;;;;;5034044;28;20392;-84
2023/05/15 04:32:58;;;;;;;50.55;26.70;;;9.40;99.90;;;;;;5021264;28;20061;-85
2023/05/15 04:35:24;;;;;;;44.15;25.95;;;9.40;99.90;;;;;;5018280;28;20114;-85
2023/05/15 04:37:49;;;;;;;49.55;27.17;;;9.40;99.90;;;;;;5033415;28;20034;-85
2023/05/15 04:40:15;;;;;;;50.03;27.50;;;9.50;99.90;;;;;;5032638;28;20045;-84
2023/05/15 04:42:41;;;;;;;43.58;25.95;;;9.50;99.90;;;;;;5021270;28;20053;-85
2023/05/15 04:45:08;;;;;;;47.28;26.38;;;9.60;99.90;;;;;;5030972;28;20162;-85
2023/05/15 04:47:34;;;;;;;48.13;27.10;;;9.60;99.90;;;;;;5034890;28;20105;-84
2023/05/15 04:49:59;;;;;;;54.85;27.65;;;9.70;99.90;;;;;;5022201;28;20207;-85
2023/05/15 04:52:25;;;;;;;48.30;28.73;;;9.80;99.90;;;;;;5034017;28;20579;-85
2023/05/15 04:54:51;;;;;;;43.33;26.10;;;9.80;99.90;;;;;;5014878;28;20303;-86
2023/05/15 04:57:17;;;;;;;42.95;26.15;;;9.80;99.90;;;;;;5015647;28;20563;-85
2023/05/15 04:59:46;;;;;;;40.47;26.55;;;9.90;99.90;;;;;;5016361;28;20044;-85
2023/05/15 05:02:12;;;;;;;42.28;26.23;;;9.90;99.90;;;;;;5020098;28;20533;-85
2023/05/15 05:04:41;;;;;;;42.83;25.80;;;9.90;99.90;;;;;;5017166;28;20128;-85
2023/05/15 05:07:07;;;;;;;46.20;25.75;;;10.00;99.90;;;;;;5019850;28;20044;-86
2023/05/15 05:09:33;;;;;;;38.22;25.75;;;10.20;99.90;;;;;;5031731;28;20053;-85
2023/05/15 05:12:02;;;;;;;45.33;27.05;;;10.20;99.90;;;;;;5018628;28;20061;-85
2023/05/15 05:14:28;;;;;;;37.42;25.00;;;10.30;99.90;;;;;;5031443;28;20448;-85
2023/05/15 05:16:53;;;;;;;37.85;25.52;;;10.20;99.90;;;;;;5032354;28;20099;-86
2023/05/15 05:19:21;;;;;;;36.22;24.42;;;10.20;99.90;;;;;;5022739;28;20056;-86
2023/05/15 05:21:47;;;;;;;35.72;24.88;;;10.30;99.90;;;;;;5033730;28;20076;-85
2023/05/15 05:24:13;;;;;;;37.85;24.75;;;10.40;99.90;;;;;;5018891;28;20081;-85
2023/05/15 05:26:38;;;;;;;34.17;23.77;;;10.40;99.90;;;;;;5013439;28;20045;-86
2023/05/15 05:29:10;;;;;;;35.55;23.73;;;10.50;99.90;;;;;;5027729;28;20099;-85
2023/05/15 05:31:39;;;;;;;33.10;23.58;;;10.70;99.90;;;;;;5034057;28;20083;-86
2023/05/15 05:34:05;;;;;;;34.63;23.20;;;10.80;99.90;;;;;;5022529;28;20127;-86
2023/05/15 05:36:31;;;;;;;33.22;23.10;;;10.80;99.90;;;;;;5013460;28;20041;-87
2023/05/15 05:39:00;;;;;;;31.77;23.20;;;11.00;99.90;;;;;;5021812;28;20049;-85
2023/05/15 05:41:25;;;;;;;33.38;23.95;;;11.00;99.90;;;;;;5017548;28;20435;-84
2023/05/15 05:43:51;;;;;;;32.72;22.35;;;11.10;99.90;;;;;;5031584;28;20102;-85
2023/05/15 05:46:17;;;;;;;30.35;21.55;;;11.20;99.90;;;;;;5018249;28;20037;-85
2023/05/15 05:48:42;;;;;;;31.10;21.65;;;11.20;99.90;;;;;;5021421;28;20045;-85
2023/05/15 05:51:08;;;;;;;31.98;22.35;;;11.20;99.90;;;;;;5016872;28;20053;-85
2023/05/15 05:53:33;;;;;;;29.23;21.70;;;11.00;99.90;;;;;;5020782;28;20464;-85
2023/05/15 05:56:00;;;;;;;28.23;21.67;;;11.00;99.90;;;;;;5015074;28;20140;-86
2023/05/15 05:58:25;;;;;;;33.67;24.05;;;11.00;99.90;;;;;;5017354;28;20044;-86
2023/05/15 06:00:51;;;;;;;32.88;23.48;;;11.20;99.90;;;;;;5017392;28;20041;-86
2023/05/15 06:03:18;;;;;;;34.97;24.27;;;11.10;99.90;;;;;;5032508;28;20511;-86
2023/05/15 06:05:43;;;;;;;34.55;24.10;;;11.30;99.90;;;;;;5020138;28;20040;-85
2023/05/15 06:08:09;;;;;;;33.10;24.23;;;11.30;99.90;;;;;;5021498;28;20156;-86
2023/05/15 06:10:35;;;;;;;33.72;24.80;;;11.30;99.90;;;;;;5019130;28;20036;-84
2023/05/15 06:13:00;;;;;;;34.92;23.50;;;11.40;99.90;;;;;;5015157;28;20388;-85
2023/05/15 06:15:26;;;;;;;32.97;23.25;;;11.40;99.90;;;;;;5020151;28;20049;-86
2023/05/15 06:17:54;;;;;;;32.88;24.15;;;11.70;99.90;;;;;;5016576;28;20029;-85
2023/05/15 06:20:20;;;;;;;31.30;24.83;;;11.90;99.90;;;;;;5015348;28;20029;-85
2023/05/15 06:22:46;;;;;;;31.92;23.48;;;12.10;99.90;;;;;;5016743;28;20280;-85
2023/05/15 06:25:13;;;;;;;29.33;24.33;;;11.90;99.90;;;;;;5013620;28;20045;-85
2023/05/15 06:27:42;;;;;;;31.77;23.67;;;12.00;99.90;;;;;;5031851;28;20044;-85
2023/05/15 06:30:08;;;;;;;32.80;23.63;;;12.00;99.90;;;;;;5018410;28;20037;-86
2023/05/15 06:32:34;;;;;;;33.72;26.00;;;12.20;99.90;;;;;;5019131;28;20063;-86
2023/05/15 06:35:00;;;;;;;32.13;25.25;;;12.30;99.90;;;;;;5022027;28;20415;-85
2023/05/15 06:37:26;;;;;;;31.75;24.75;;;12.50;99.90;;;;;;5018970;28;20123;-86
2023/05/15 06:39:52;;;;;;;32.97;24.58;;;12.70;99.90;;;;;;5016798;28;20168;-85
2023/05/15 06:42:17;;;;;;;32.00;24.48;;;12.90;99.90;;;;;;5019182;28;20045;-84
2023/05/15 06:44:43;;;;;;;29.67;23.58;;;12.60;99.90;;;;;;5022675;28;20037;-85
2023/05/15 06:47:08;;;;;;;28.50;22.40;;;12.40;99.90;;;;;;5038042;28;20045;-84
2023/05/15 06:49:34;;;;;;;26.55;20.88;;;12.10;99.90;;;;;;5021764;28;20041;-86
2023/05/15 06:52:03;;;;;;;29.52;21.67;;;12.10;99.90;;;;;;5021199;28;20056;-84
2023/05/15 06:54:29;;;;;;;32.67;21.80;;;12.20;99.90;;;;;;5021137;28;20040;-85
2023/05/15 06:56:55;;;;;;;27.75;21.17;;;12.40;99.90;;;;;;5036376;28;20043;-85
2023/05/15 06:59:20;;;;;;;31.55;24.35;;;12.50;99.90;;;;;;5032588;28;20183;-84
2023/05/15 07:01:46;;;;;;;32.70;22.70;;;12.80;99.90;;;;;;5040084;28;20059;-84
2023/05/15 07:04:11;;;;;;;29.55;21.98;;;12.60;99.90;;;;;;5020864;28;20032;-85
2023/05/15 07:06:37;;;;;;;29.02;22.38;;;12.80;99.90;;;;;;5033789;28;20037;-84
2023/05/15 07:09:03;;;;;;;27.85;22.25;;;12.80;99.90;;;;;;5034450;28;20033;-84
2023/05/15 07:11:29;;;;;;;29.65;22.67;;;12.70;99.90;;;;;;5021899;28;20079;-85
2023/05/15 07:13:55;;;;;;;28.98;21.45;;;12.50;99.90;;;;;;5021378;28;20476;-85
2023/05/15 07:16:21;;;;;;;23.25;19.52;;;12.40;99.90;;;;;;5034556;28;20064;-85
2023/05/15 07:18:46;;;;;;;26.10;19.95;;;12.30;99.90;;;;;;5022100;28;20668;-85
2023/05/15 07:21:12;;;;;;;24.58;19.23;;;12.40;99.90;;;;;;5033959;28;20041;-85
2023/05/15 07:23:38;;;;;;;25.15;20.23;;;12.50;99.90;;;;;;5022438;28;20032;-85
2023/05/15 07:26:04;;;;;;;24.63;20.10;;;12.70;99.90;;;;;;5020680;28;20451;-85
2023/05/15 07:28:29;;;;;;;27.02;19.23;;;12.90;99.90;;;;;;5021288;28;20117;-85
2023/05/15 07:30:55;;;;;;;23.52;17.95;;;12.80;99.90;;;;;;5036510;28;20049;-84
2023/05/15 07:33:28;;;;;;;25.35;17.52;;;12.80;99.90;;;;;;5023343;28;20055;-85
2023/05/15 07:35:54;;;;;;;21.83;17.95;;;12.80;99.90;;;;;;5020154;28;20048;-84
2023/05/15 07:38:20;;;;;;;22.55;16.77;;;12.90;99.90;;;;;;5020308;28;20060;-84
2023/05/15 07:40:45;;;;;;;23.00;17.83;;;12.70;99.90;;;;;;5016213;28;20047;-84
2023/05/15 07:43:11;;;;;;;22.65;17.15;;;12.80;99.90;;;;;;5034922;28;20044;-84
2023/05/15 07:45:36;;;;;;;22.10;16.92;;;12.70;99.90;;;;;;5034137;28;20037;-85
2023/05/15 07:48:13;;;;;;;22.13;16.80;;;12.90;99.90;;;;;;5022331;28;20174;-84
2023/05/15 07:50:43;;;;;;;23.27;17.00;;;13.20;99.90;;;;;;5025262;28;20112;-84
2023/05/15 07:53:09;;;;;;;22.48;16.90;;;13.30;99.90;;;;;;5022906;28;20042;-84
2023/05/15 07:55:35;;;;;;;22.05;15.75;;;13.30;99.90;;;;;;5034875;28;20037;-84
2023/05/15 07:58:01;;;;;;;19.17;15.68;;;13.20;99.90;;;;;;5018097;28;20096;-85
2023/05/15 08:00:27;;;;;;;21.75;16.42;;;13.40;99.90;;;;;;5036974;28;20034;-84
2023/05/15 08:02:52;;;;;;;17.08;14.38;;;13.50;99.90;;;;;;5018967;28;20429;-84
2023/05/15 08:05:18;;;;;;;22.55;16.33;;;13.60;99.90;;;;;;5035043;28;20439;-85
2023/05/15 08:07:44;;;;;;;21.17;14.98;;;13.60;99.90;;;;;;5017337;28;20059;-85
2023/05/15 08:10:10;;;;;;;24.30;16.77;;;13.80;99.90;;;;;;5022855;28;20040;-85
2023/05/15 08:12:35;;;;;;;18.58;16.10;;;13.70;99.90;;;;;;5023793;28;20546;-84
2023/05/15 08:15:05;;;;;;;19.58;14.75;;;13.90;99.90;;;;;;5023547;28;20115;-85
2023/05/15 08:17:31;;;;;;;17.60;14.45;;;14.00;99.90;;;;;;5030481;28;20380;-84
2023/05/15 08:19:56;;;;;;;19.08;15.43;;;13.90;99.90;;;;;;5017754;28;20033;-84
2023/05/15 08:22:22;;;;;;;16.73;14.07;;;14.00;99.90;;;;;;5018848;28;20297;-84
2023/05/15 08:24:50;;;;;;;18.52;14.18;;;14.10;99.90;;;;;;5029413;28;20045;-85
2023/05/15 08:27:16;;;;;;;19.05;15.30;;;13.90;99.90;;;;;;5035139;28;20084;-85
2023/05/15 08:29:42;;;;;;;17.40;14.27;;;13.90;99.90;;;;;;5030159;28;20109;-84
2023/05/15 08:32:08;;;;;;;17.92;13.65;;;14.00;99.90;;;;;;5048989;28;20506;-83
2023/05/15 08:34:34;;;;;;;17.52;14.88;;;14.20;99.90;;;;;;5030708;28;20178;-84
2023/05/15 08:36:59;;;;;;;18.45;14.82;;;14.00;99.90;;;;;;5021957;28;20160;-84
2023/05/15 08:39:25;;;;;;;16.90;14.88;;;14.30;99.90;;;;;;5022252;28;20057;-85
2023/05/15 08:42:19;;;;;;;20.95;14.73;;;14.30;99.90;;;;;;5013643;28;20034;-85
2023/05/15 08:44:45;;;;;;;19.48;13.82;;;14.40;99.90;;;;;;5030540;28;20037;-85
2023/05/15 08:47:12;;;;;;;18.15;13.25;;;14.40;99.90;;;;;;5020538;28;20064;-85
2023/05/15 08:49:41;;;;;;;18.63;14.73;;;14.60;99.90;;;;;;5021601;28;20426;-85
2023/05/15 08:52:07;;;;;;;18.08;15.38;;;14.80;99.90;;;;;;5017268;28;20072;-84
2023/05/15 08:54:34;;;;;;;17.00;14.73;;;14.60;99.90;;;;;;5020515;28;20040;-84
2023/05/15 08:57:01;;;;;;;16.48;13.10;;;14.70;99.90;;;;;;5021676;28;20080;-84
2023/05/15 08:59:26;;;;;;;16.55;13.10;;;14.50;99.90;;;;;;5018159;28;20512;-84
2023/05/15 09:01:56;;;;;;;15.23;12.60;;;14.50;99.90;;;;;;5035353;28;20044;-85
2023/05/15 09:04:22;;;;;;;14.15;11.52;;;14.40;99.90;;;;;;5032256;28;20051;-84
2023/05/15 09:06:48;;;;;;;16.92;13.52;;;14.60;99.90;;;;;;5017014;28;20049;-85
2023/05/15 09:09:14;;;;;;;16.25;11.88;;;14.90;99.90;;;;;;5022221;28;20037;-85
2023/05/15 09:11:47;;;;;;;16.23;13.48;;;14.80;99.90;;;;;;5032365;28;20061;-85
2023/05/15 09:14:13;;;;;;;20.40;13.32;;;15.00;99.90;;;;;;5013821;28;20550;-85
2023/05/15 09:16:38;;;;;;;15.77;13.13;;;15.20;99.90;;;;;;5018308;28;20045;-85
2023/05/15 09:19:05;;;;;;;16.25;12.50;;;15.10;99.90;;;;;;5030187;28;20041;-83
2023/05/15 09:21:31;;;;;;;17.30;12.30;;;15.00;99.90;;;;;;5016442;28;20032;-85
2023/05/15 09:24:17;;;;;;;15.40;13.10;;;15.10;99.90;;;;;;5028108;28;20029;-83
2023/05/15 09:26:43;;;;;;;16.38;12.10;;;15.20;99.90;;;;;;5013389;28;20032;-85
2023/05/15 09:29:09;;;;;;;14.80;11.98;;;15.40;99.90;;;;;;5018782;28;21124;-84
2023/05/15 09:31:35;;;;;;;14.57;11.82;;;15.60;99.90;;;;;;5022052;28;20037;-84
2023/05/15 09:34:03;;;;;;;14.80;11.07;;;15.30;99.90;;;;;;5022539;28;20032;-84
2023/05/15 09:36:29;;;;;;;13.75;11.82;;;15.40;99.90;;;;;;5020767;28;20140;-85
2023/05/15 09:38:59;;;;;;;13.50;12.10;;;15.80;99.90;;;;;;5021015;28;20056;-84
2023/05/15 09:41:26;;;;;;;16.73;12.25;;;15.60;99.90;;;;;;5019773;28;20045;-84
2023/05/15 09:43:55;;;;;;;16.27;12.45;;;15.70;99.90;;;;;;5032317;28;20126;-84
2023/05/15 09:46:22;;;;;;;15.75;12.25;;;15.80;99.90;;;;;;5019117;28;20044;-84
2023/05/15 09:48:58;;;;;;;18.25;13.18;;;15.80;99.90;;;;;;5020631;28;20045;-85
2023/05/15 09:51:26;;;;;;;14.13;12.02;;;16.10;99.90;;;;;;5021792;28;20117;-84
2023/05/15 09:53:53;;;;;;;14.63;12.75;;;16.00;99.90;;;;;;5032794;28;20037;-84
2023/05/15 09:56:19;;;;;;;14.77;12.65;;;16.00;99.90;;;;;;5016812;28;20045;-84
2023/05/15 09:58:58;;;;;;;16.75;13.45;;;15.90;99.90;;;;;;5021025;28;20044;-84
2023/05/15 10:01:27;;;;;;;16.05;13.68;;;16.30;99.90;;;;;;5017047;28;20037;-84
2023/05/15 10:04:02;;;;;;;14.65;11.82;;;16.40;99.90;;;;;;5033820;28;20040;-84
2023/05/15 10:06:37;;;;;;;14.77;12.20;;;16.20;99.90;;;;;;5020324;28;20282;-83
2023/05/15 10:09:06;;;;;;;10.75;9.65;;;16.40;99.90;;;;;;5012861;28;20051;-84
2023/05/15 10:11:35;;;;;;;16.08;10.93;;;16.50;99.90;;;;;;5017404;28;20426;-84
2023/05/15 10:14:02;;;;;;;15.18;12.13;;;16.70;99.90;;;;;;5021112;28;20284;-84
2023/05/15 10:16:29;;;;;;;13.82;11.80;;;16.80;99.90;;;;;;5036076;28;20118;-85
2023/05/15 10:18:57;;;;;;;12.75;11.07;;;16.80;99.90;;;;;;5025254;28;20076;-85
2023/05/15 10:21:24;;;;;;;12.25;10.38;;;17.00;99.90;;;;;;5018153;28;20072;-84
2023/05/15 10:23:50;;;;;;;14.02;10.90;;;16.70;99.90;;;;;;5028853;28;20103;-84
2023/05/15 10:26:26;;;;;;;13.57;11.65;;;16.90;99.90;;;;;;5016296;28;20060;-84
2023/05/15 10:28:52;;;;;;;14.10;11.48;;;16.90;99.90;;;;;;5030265;28;20660;-85
2023/05/15 10:31:19;;;;;;;12.93;11.57;;;16.90;99.90;;;;;;5033849;28;20045;-84
2023/05/15 10:33:50;;;;;;;13.48;10.88;;;17.10;99.90;;;;;;5022257;28;20049;-83
2023/05/15 10:36:19;;;;;;;13.18;11.38;;;17.50;99.90;;;;;;5030341;28;20044;-83
2023/05/15 10:38:46;;;;;;;12.85;10.45;;;16.90;99.90;;;;;;5020915;28;20361;-84
2023/05/15 10:41:16;;;;;;;11.57;10.40;;;16.70;99.90;;;;;;5010858;28;20061;-83
2023/05/15 10:43:43;;;;;;;12.93;10.65;;;16.30;99.90;;;;;;5029460;28;20040;-84
2023/05/15 10:46:12;;;;;;;12.32;10.30;;;16.70;99.90;;;;;;5018045;28;20041;-83
2023/05/15 10:48:39;;;;;;;12.05;10.30;;;16.50;99.90;;;;;;5018461;28;20537;-85
2023/05/15 10:51:15;;;;;;;15.50;12.05;;;16.80;99.90;;;;;;5019562;28;20589;-84
2023/05/15 10:53:42;;;;;;;15.23;10.88;;;16.30;99.90;;;;;;5029469;28;20533;-84
2023/05/15 10:56:15;;;;;;;14.05;11.65;;;16.30;99.90;;;;;;5018866;28;20073;-84
2023/05/15 10:58:47;;;;;;;12.57;10.25;;;16.60;99.90;;;;;;5020946;28;20385;-85
2023/05/15 11:01:42;;;;;;;13.13;10.45;;;16.90;99.90;;;;;;5019279;28;20060;-84
2023/05/15 11:04:12;;;;;;;15.18;10.93;;;17.00;99.90;;;;;;5014768;28;20083;-84
2023/05/15 11:06:47;;;;;;;11.75;10.50;;;17.00;99.90;;;;;;5028303;28;20041;-84
2023/05/15 11:09:32;;;;;;;14.45;11.02;;;17.10;99.90;;;;;;5013758;28;20083;-84
2023/05/15 11:12:00;;;;;;;15.30;11.23;;;17.40;99.90;;;;;;5018985;28;20172;-84
2023/05/15 11:14:31;;;;;;;13.80;11.25;;;17.30;99.90;;;;;;5015693;28;20033;-84
2023/05/15 11:17:05;;;;;;;12.27;10.48;;;17.00;99.90;;;;;;5018392;28;20041;-83
2023/05/15 11:19:35;;;;;;;11.32;10.13;;;17.50;99.90;;;;;;5030950;28;20487;-83
2023/05/15 11:22:08;;;;;;;11.30;10.05;;;17.80;99.90;;;;;;5021038;28;20037;-83
2023/05/15 11:25:05;;;;;;;11.50;10.10;;;17.80;99.90;;;;;;5033832;28;20075;-84
2023/05/15 11:27:54;;;;;;;10.85;9.68;;;18.20;99.90;;;;;;5022806;28;20134;-84
2023/05/15 11:30:21;;;;;;;11.93;10.13;;;18.10;99.90;;;;;;5021936;28;20734;-83
2023/05/15 11:33:10;;;;;;;14.15;9.57;;;18.00;99.90;;;;;;5024660;28;20045;-84
2023/05/15 11:35:42;;;;;;;12.75;10.10;;;17.90;99.90;;;;;;5025587;28;20099;-83
2023/05/15 11:38:14;;;;;;;11.38;10.10;;;17.60;10.00;;;;;;5022546;28;20065;-83
2023/05/15 11:40:54;;;;;;;14.05;9.88;;;17.70;99.90;;;;;;5017612;28;20456;-83
2023/05/15 11:43:20;;;;;;;12.63;9.93;;;17.40;99.90;;;;;;5018667;28;20131;-83
2023/05/15 11:45:49;;;;;;;13.07;9.55;;;17.30;99.90;;;;;;5023509;28;20041;-83
2023/05/15 11:48:18;;;;;;;12.25;9.45;;;17.20;99.90;;;;;;5023571;28;20127;-83
2023/05/15 11:50:45;;;;;;;9.27;8.32;;;17.00;99.90;;;;;;5024444;28;20584;-84
2023/05/15 11:53:12;;;;;;;10.32;9.32;;;17.50;99.90;;;;;;5033308;28;20597;-83
2023/05/15 11:55:40;;;;;;;11.38;9.55;;;17.80;99.90;;;;;;5019194;28;20043;-84
2023/05/15 11:58:12;;;;;;;13.20;10.15;;;17.80;99.90;;;;;;5031123;28;20044;-83
2023/05/15 12:00:38;;;;;;;11.45;9.82;;;18.10;99.90;;;;;;5016635;28;20086;-83
2023/05/15 12:03:04;;;;;;;10.80;9.40;;;18.60;99.90;;;;;;5022934;28;20118;-83
2023/05/15 12:05:30;;;;;;;12.15;10.70;;;18.40;99.90;;;;;;5021446;28;20084;-83
2023/05/15 12:07:57;;;;;;;14.05;12.57;;;17.50;99.90;;;;;;5021719;28;20047;-83
2023/05/15 12:10:22;;;;;;;13.65;12.05;;;17.90;99.90;;;;;;5020333;28;20055;-83
2023/05/15 12:12:49;;;;;;;15.02;12.95;;;17.50;99.90;;;;;;5022597;28;20053;-83
2023/05/15 12:15:16;;;;;;;15.38;13.70;;;17.10;99.90;;;;;;5022205;28;21328;-83
2023/05/15 12:17:46;;;;;;;16.27;14.60;;;17.40;99.90;;;;;;5021834;28;20476;-83
2023/05/15 12:20:18;;;;;;;15.95;13.23;;;17.80;99.90;;;;;;5018601;28;20052;-83
2023/05/15 12:22:44;;;;;;;15.55;13.95;;;17.80;99.90;;;;;;5040326;28;20435;-83
2023/05/15 12:25:11;;;;;;;16.88;14.48;;;17.50;99.90;;;;;;5034088;28;20029;-83
2023/05/15 12:27:38;;;;;;;15.65;13.75;;;17.10;99.90;;;;;;5020833;28;20041;-83
2023/05/15 12:30:05;;;;;;;15.30;13.20;;;17.50;99.90;;;;;;5022222;28;20044;-83